Time;durP1;ratioP1;P1;durP2;ratioP2;P2;SDS_P1;SDS_P2;PMS_P1;PMS_P2;Temp;Humidity;BMP_temperature;BMP_pressure;BME280_temperature;BME280_humidity;BME280_pressure;Samples;Min_cycle;Max_cycle;Signal;HPM_P1;HPM_P2
2021/03/30 00:00:15;;;;;;;4.55;2.58;;;12.70;43.50;;;;;;5032260;28;20719;-78
2021/03/30 00:03:00;;;;;;;6.22;3.95;;;12.70;43.60;;;;;;5017553;28;20204;-78
2021/03/30 00:05:45;;;;;;;6.32;3.13;;;12.60;43.60;;;;;;5003866;28;20184;-81
2021/03/30 00:08:29;;;;;;;5.07;2.90;;;12.60;43.70;;;;;;5017379;28;20263;-79
2021/03/30 00:11:14;;;;;;;5.50;2.50;;;12.60;43.80;;;;;;5017417;28;20661;-80
2021/03/30 00:13:58;;;;;;;4.43;2.65;;;12.60;44.40;;;;;;5017428;28;20188;-80
2021/03/30 00:16:43;;;;;;;4.75;2.55;;;12.60;44.10;;;;;;5033287;28;20180;-80
2021/03/30 00:19:27;;;;;;;3.95;2.70;;;12.60;44.10;;;;;;5017405;28;20228;-78
2021/03/30 00:22:12;;;;;;;5.68;2.83;;;12.60;44.10;;;;;;5032646;28;20212;-78
2021/03/30 00:24:56;;;;;;;6.72;3.20;;;12.60;44.20;;;;;;5035932;28;20188;-78
2021/03/30 00:27:40;;;;;;;2.90;2.33;;;12.60;44.30;;;;;;5016896;28;20232;-80
2021/03/30 00:30:25;;;;;;;8.43;2.88;;;12.60;44.40;;;;;;5028852;28;20212;-79
2021/03/30 00:33:09;;;;;;;4.85;2.45;;;12.60;44.40;;;;;;5024152;28;20227;-79
2021/03/30 00:35:53;;;;;;;3.25;2.60;;;12.60;44.60;;;;;;5016009;28;20197;-79
2021/03/30 00:38:37;;;;;;;7.78;3.05;;;12.50;44.50;;;;;;5030492;28;20539;-79
2021/03/30 00:41:21;;;;;;;4.32;2.58;;;12.60;44.80;;;;;;5016860;28;20755;-80
2021/03/30 00:44:11;;;;;;;3.95;2.70;;;12.50;44.80;;;;;;5023246;28;20255;-79
2021/03/30 00:46:56;;;;;;;4.97;2.95;;;12.50;45.10;;;;;;5000546;28;20304;-79
2021/03/30 00:49:42;;;;;;;4.15;2.47;;;12.50;45.10;;;;;;5026242;28;20224;-79
2021/03/30 00:52:27;;;;;;;4.60;2.65;;;12.50;45.30;;;;;;5031716;28;20200;-79
2021/03/30 00:55:30;;;;;;;3.78;2.33;;;12.50;45.40;;;;;;5031992;28;20179;-80
2021/03/30 00:58:15;;;;;;;4.72;3.28;;;12.40;45.40;;;;;;5031643;28;20204;-79
2021/03/30 01:00:59;;;;;;;6.28;2.75;;;12.40;45.50;;;;;;5036333;28;20216;-79
2021/03/30 01:03:43;;;;;;;5.18;2.83;;;12.40;45.70;;;;;;5032171;28;20189;-80
2021/03/30 01:06:27;;;;;;;5.32;3.45;;;12.30;45.50;;;;;;5031529;28;20185;-79
2021/03/30 01:09:30;;;;;;;4.90;2.03;;;12.40;45.70;;;;;;5018576;28;20192;-80
2021/03/30 01:12:45;;;;;;;3.95;2.47;;;12.30;46.20;;;;;;5020613;28;20196;-79
2021/03/30 01:15:41;;;;;;;4.32;3.25;;;12.30;46.30;;;;;;5035614;28;20300;-79
2021/03/30 01:18:41;;;;;;;5.47;3.10;;;12.20;46.10;;;;;;5020450;28;20216;-80
2021/03/30 01:22:02;;;;;;;4.85;2.45;;;12.30;46.50;;;;;;5020391;28;20231;-79
2021/03/30 01:24:50;;;;;;;7.70;2.33;;;12.20;46.80;;;;;;5020550;28;20619;-79
2021/03/30 01:27:52;;;;;;;5.03;2.60;;;12.20;46.20;;;;;;5035003;28;20228;-79
2021/03/30 01:30:37;;;;;;;4.47;2.50;;;12.20;47.00;;;;;;5035329;28;20334;-79
2021/03/30 01:33:27;;;;;;;6.80;2.88;;;12.10;48.80;;;;;;5020625;28;20319;-79
2021/03/30 01:36:14;;;;;;;3.20;2.17;;;12.10;46.90;;;;;;5035943;28;20247;-79
2021/03/30 01:38:58;;;;;;;3.58;2.30;;;12.00;47.50;;;;;;5028370;28;20188;-79
2021/03/30 01:41:45;;;;;;;2.60;2.17;;;12.00;46.80;;;;;;5020932;28;20263;-80
2021/03/30 01:44:31;;;;;;;4.30;2.53;;;12.00;47.10;;;;;;5020197;28;20731;-79
2021/03/30 01:47:19;;;;;;;3.47;2.60;;;12.00;47.70;;;;;;5034581;28;20208;-79
2021/03/30 01:50:06;;;;;;;3.10;2.05;;;12.00;47.20;;;;;;5035224;28;20712;-79
2021/03/30 01:52:52;;;;;;;3.38;1.70;;;12.00;47.10;;;;;;5020432;28;20189;-80
2021/03/30 01:55:36;;;;;;;2.45;1.52;;;11.90;47.30;;;;;;5019852;28;20192;-79
2021/03/30 01:58:22;;;;;;;3.75;2.33;;;11.90;47.30;;;;;;5034521;28;20220;-80
2021/03/30 02:01:08;;;;;;;3.75;1.95;;;12.00;47.30;;;;;;5019421;28;20204;-80
2021/03/30 02:03:53;;;;;;;2.25;1.63;;;11.90;47.10;;;;;;5034633;28;20196;-80
2021/03/30 02:06:42;;;;;;;2.85;1.83;;;11.90;47.50;;;;;;5034323;28;20731;-80
2021/03/30 02:09:31;;;;;;;4.00;2.47;;;11.90;48.80;;;;;;5034869;28;20220;-81
2021/03/30 02:12:17;;;;;;;5.22;1.88;;;11.80;49.40;;;;;;5034922;28;20196;-79
2021/03/30 02:15:02;;;;;;;6.90;2.30;;;11.80;48.30;;;;;;5024283;28;20187;-79
2021/03/30 02:17:54;;;;;;;4.88;2.50;;;11.80;48.90;;;;;;5019457;28;20196;-79
2021/03/30 02:20:44;;;;;;;5.20;2.22;;;11.70;49.00;;;;;;5033251;28;20204;-80
2021/03/30 02:23:33;;;;;;;3.42;2.03;;;11.70;48.70;;;;;;5019582;28;20193;-78
2021/03/30 02:26:20;;;;;;;4.07;2.92;;;11.70;48.70;;;;;;5034068;28;20188;-79
2021/03/30 02:29:09;;;;;;;4.65;2.70;;;11.70;48.30;;;;;;5019142;28;20212;-80
2021/03/30 02:31:56;;;;;;;4.50;2.40;;;11.70;48.60;;;;;;5034365;28;20193;-81
2021/03/30 02:34:42;;;;;;;4.65;2.00;;;11.60;48.80;;;;;;5034104;28;20189;-80
2021/03/30 02:37:28;;;;;;;3.63;1.90;;;11.60;49.10;;;;;;5033889;28;20200;-80
2021/03/30 02:40:15;;;;;;;3.50;2.10;;;11.50;48.50;;;;;;5033972;28;20715;-80
2021/03/30 02:43:00;;;;;;;2.67;1.95;;;11.50;49.40;;;;;;5019131;28;20231;-80
2021/03/30 02:45:49;;;;;;;4.00;2.08;;;11.50;48.90;;;;;;5019296;28;20193;-81
2021/03/30 02:48:37;;;;;;;4.63;2.17;;;11.40;49.30;;;;;;5033789;28;20224;-81
2021/03/30 02:51:24;;;;;;;3.92;2.20;;;11.40;48.80;;;;;;5022329;28;20212;-81
2021/03/30 02:54:10;;;;;;;3.65;2.30;;;11.30;49.20;;;;;;5033948;28;20184;-80
2021/03/30 02:57:00;;;;;;;3.70;2.08;;;11.30;48.90;;;;;;5033445;28;20185;-80
2021/03/30 02:59:47;;;;;;;3.88;2.50;;;11.30;49.50;;;;;;5033648;28;20300;-80
2021/03/30 03:02:32;;;;;;;3.13;2.42;;;11.30;50.00;;;;;;5033693;28;20242;-80
2021/03/30 03:05:17;;;;;;;4.68;2.28;;;11.20;49.40;;;;;;5018763;28;20594;-80
2021/03/30 03:08:03;;;;;;;3.53;2.53;;;11.20;49.20;;;;;;5033433;28;20543;-80
2021/03/30 03:10:52;;;;;;;5.20;2.10;;;11.10;49.40;;;;;;5033559;28;20676;-80
2021/03/30 03:13:37;;;;;;;2.90;2.20;;;11.10;49.70;;;;;;5018427;28;20204;-80
2021/03/30 03:16:23;;;;;;;4.03;2.55;;;11.10;49.80;;;;;;5033204;28;20216;-80
2021/03/30 03:19:09;;;;;;;4.97;3.20;;;11.00;49.80;;;;;;5033306;28;20193;-80
2021/03/30 03:21:54;;;;;;;3.88;1.88;;;11.00;50.30;;;;;;5033401;28;20728;-81
2021/03/30 03:24:40;;;;;;;3.05;2.10;;;10.90;50.00;;;;;;5033652;28;20188;-80
2021/03/30 03:27:24;;;;;;;3.08;1.88;;;11.00;49.90;;;;;;5033451;28;20287;-80
2021/03/30 03:30:11;;;;;;;4.95;2.97;;;10.90;49.60;;;;;;5038289;28;20223;-80
2021/03/30 03:33:09;;;;;;;2.45;1.95;;;10.90;49.70;;;;;;5033110;28;20247;-80
2021/03/30 03:36:09;;;;;;;3.00;2.20;;;10.90;49.70;;;;;;5033075;28;20558;-79
2021/03/30 03:38:53;;;;;;;4.80;2.15;;;10.80;49.80;;;;;;5033055;28;20192;-79
2021/03/30 03:41:39;;;;;;;3.67;2.45;;;10.80;49.80;;;;;;5032804;28;20200;-79
2021/03/30 03:44:28;;;;;;;3.50;1.83;;;10.80;50.00;;;;;;5033138;28;20188;-78
2021/03/30 03:47:12;;;;;;;2.53;1.70;;;10.80;49.80;;;;;;5017722;28;20712;-78
2021/03/30 03:49:57;;;;;;;3.83;2.30;;;10.70;49.60;;;;;;5017868;28;20716;-78
2021/03/30 03:52:48;;;;;;;2.55;2.30;;;10.70;49.80;;;;;;5027852;28;20196;-79
2021/03/30 03:55:33;;;;;;;2.65;2.17;;;10.70;50.10;;;;;;5017864;28;20197;-78
2021/03/30 03:58:23;;;;;;;4.10;1.95;;;10.60;49.90;;;;;;5017225;28;20189;-78
2021/03/30 04:01:12;;;;;;;4.30;1.90;;;10.60;50.20;;;;;;5032256;28;20248;-79
2021/03/30 04:04:02;;;;;;;4.53;2.50;;;10.50;50.20;;;;;;5018061;28;20184;-79
2021/03/30 04:06:55;;;;;;;4.03;2.20;;;10.50;50.40;;;;;;5036667;28;20240;-81
2021/03/30 04:09:41;;;;;;;5.78;2.90;;;10.40;51.40;;;;;;5017694;28;20197;-79
2021/03/30 04:12:29;;;;;;;4.65;2.50;;;10.40;52.30;;;;;;5017671;28;20695;-79
2021/03/30 04:15:14;;;;;;;4.47;2.13;;;10.40;51.50;;;;;;5032818;28;20668;-80
2021/03/30 04:18:00;;;;;;;7.50;3.10;;;10.40;51.10;;;;;;5032036;28;20192;-79
2021/03/30 04:20:45;;;;;;;6.60;2.67;;;10.30;51.40;;;;;;5032192;28;20232;-80
2021/03/30 04:23:30;;;;;;;4.35;2.70;;;10.30;51.30;;;;;;5032257;28;20177;-80
2021/03/30 04:26:14;;;;;;;5.90;2.67;;;10.30;52.40;;;;;;5031970;28;20243;-80
2021/03/30 04:28:58;;;;;;;4.97;2.40;;;10.30;51.80;;;;;;5032558;28;20181;-80
2021/03/30 04:31:43;;;;;;;4.72;2.85;;;10.30;51.40;;;;;;5033196;28;20304;-80
2021/03/30 04:34:28;;;;;;;4.07;2.63;;;10.30;51.80;;;;;;5032852;28;20180;-80
2021/03/30 04:37:12;;;;;;;6.00;2.72;;;10.20;51.30;;;;;;5018992;28;20270;-80
2021/03/30 04:39:56;;;;;;;2.70;1.88;;;10.20;51.60;;;;;;5018240;28;20195;-81
2021/03/30 04:42:41;;;;;;;4.47;2.42;;;10.20;51.50;;;;;;5019782;28;20656;-81
2021/03/30 04:45:25;;;;;;;4.45;2.20;;;10.20;52.20;;;;;;5033331;28;20196;-79
2021/03/30 04:48:10;;;;;;;7.47;3.03;;;10.10;52.10;;;;;;5032763;28;20254;-80
2021/03/30 04:50:55;;;;;;;4.72;2.70;;;10.10;52.00;;;;;;5032412;28;20280;-81
2021/03/30 04:53:39;;;;;;;4.80;2.42;;;10.10;52.50;;;;;;5016916;28;20277;-80
2021/03/30 04:56:23;;;;;;;3.53;2.78;;;10.10;52.80;;;;;;5018486;28;20192;-80
2021/03/30 04:59:07;;;;;;;8.07;2.90;;;10.00;52.50;;;;;;5032904;28;20191;-80
2021/03/30 05:01:51;;;;;;;5.45;2.83;;;10.00;54.00;;;;;;5057465;23;20220;-77
2021/03/30 05:04:35;;;;;;;4.55;2.90;;;9.90;55.00;;;;;;5046053;28;20611;-76
2021/03/30 05:07:19;;;;;;;7.70;2.60;;;9.90;55.10;;;;;;5051733;28;20234;-76
2021/03/30 05:10:08;;;;;;;4.57;3.17;;;9.80;55.20;;;;;;5031799;28;20243;-76
2021/03/30 05:12:53;;;;;;;4.85;2.53;;;9.80;55.40;;;;;;5016618;28;20589;-76
2021/03/30 05:15:39;;;;;;;5.20;2.70;;;9.80;54.10;;;;;;5031551;28;20181;-76
2021/03/30 05:18:24;;;;;;;7.30;2.42;;;9.80;54.20;;;;;;5016425;28;20252;-76
2021/03/30 05:21:08;;;;;;;4.03;3.03;;;9.80;54.40;;;;;;5031503;28;20262;-75
2021/03/30 05:23:57;;;;;;;3.90;2.53;;;9.80;54.00;;;;;;5003038;28;20216;-76
2021/03/30 05:26:42;;;;;;;4.65;2.47;;;9.80;54.20;;;;;;5016239;28;20188;-75
2021/03/30 05:29:26;;;;;;;3.90;2.75;;;9.80;54.10;;;;;;5030360;28;20184;-77
2021/03/30 05:32:19;;;;;;;5.43;2.85;;;9.80;54.20;;;;;;5031449;28;20733;-76
2021/03/30 05:35:09;;;;;;;4.10;2.47;;;9.80;54.60;;;;;;5031520;28;20773;-77
2021/03/30 05:37:53;;;;;;;4.35;3.03;;;9.80;55.10;;;;;;5016255;28;20248;-75
2021/03/30 05:40:38;;;;;;;5.60;2.88;;;9.90;55.10;;;;;;5030317;28;20232;-77
2021/03/30 05:43:26;;;;;;;5.15;3.42;;;9.90;55.30;;;;;;5002847;28;20723;-76
2021/03/30 05:46:12;;;;;;;5.95;2.55;;;9.90;55.20;;;;;;5020373;28;20196;-77
2021/03/30 05:48:56;;;;;;;5.10;2.50;;;10.00;54.90;;;;;;5016530;28;20251;-77
2021/03/30 05:51:41;;;;;;;2.78;2.03;;;10.00;54.10;;;;;;5016170;28;20243;-77
2021/03/30 05:54:30;;;;;;;4.47;2.70;;;10.00;54.70;;;;;;5016505;28;20300;-77
2021/03/30 05:57:17;;;;;;;5.25;3.47;;;10.00;55.10;;;;;;5017419;28;21349;-76
2021/03/30 06:00:03;;;;;;;7.22;3.53;;;10.00;56.30;;;;;;5019280;28;20635;-75
2021/03/30 06:02:52;;;;;;;3.85;2.55;;;10.10;56.20;;;;;;5019347;28;20216;-76
2021/03/30 06:05:38;;;;;;;6.78;3.78;;;10.10;56.00;;;;;;5019461;28;20236;-76
2021/03/30 06:08:24;;;;;;;6.80;3.30;;;10.10;55.70;;;;;;5034401;28;20580;-77
2021/03/30 06:11:11;;;;;;;7.45;3.50;;;10.20;55.40;;;;;;5019644;28;20288;-76
2021/03/30 06:13:57;;;;;;;9.02;3.00;;;10.20;55.10;;;;;;5034406;28;20219;-78
2021/03/30 06:16:43;;;;;;;4.05;2.55;;;10.30;55.90;;;;;;5019057;28;20200;-77
2021/03/30 06:19:30;;;;;;;5.38;2.88;;;10.30;55.50;;;;;;5019520;28;20189;-77
2021/03/30 06:22:14;;;;;;;3.47;2.42;;;10.30;55.20;;;;;;5038460;28;20263;-77
2021/03/30 06:24:58;;;;;;;7.35;3.60;;;10.40;55.30;;;;;;5019214;28;20200;-76
2021/03/30 06:27:43;;;;;;;5.22;3.25;;;10.50;55.40;;;;;;5033731;28;20179;-76
2021/03/30 06:30:29;;;;;;;4.28;3.40;;;10.60;55.60;;;;;;5052707;28;20281;-76
2021/03/30 06:33:19;;;;;;;6.85;3.60;;;10.60;55.50;;;;;;5038811;28;20211;-77
2021/03/30 06:36:21;;;;;;;4.85;3.45;;;10.80;55.90;;;;;;5053761;28;20239;-76
2021/03/30 06:39:07;;;;;;;7.20;3.20;;;10.90;55.80;;;;;;5053749;28;20210;-76
2021/03/30 06:42:16;;;;;;;5.05;3.33;;;11.00;55.60;;;;;;5038404;28;20253;-77
2021/03/30 06:44:59;;;;;;;6.22;3.22;;;11.20;55.80;;;;;;5053648;28;20246;-77
2021/03/30 06:47:52;;;;;;;7.38;3.60;;;11.30;55.80;;;;;;5053099;28;20612;-77
2021/03/30 06:50:38;;;;;;;6.00;2.95;;;11.50;55.90;;;;;;5038522;28;20578;-77
2021/03/30 06:53:22;;;;;;;6.47;3.28;;;11.60;56.70;;;;;;5038300;28;20200;-76
2021/03/30 06:56:06;;;;;;;5.13;3.00;;;11.70;55.80;;;;;;5038736;28;20744;-78
2021/03/30 06:59:00;;;;;;;6.22;2.92;;;11.80;56.00;;;;;;5030154;28;20188;-76
2021/03/30 07:01:47;;;;;;;9.38;3.42;;;11.90;56.40;;;;;;5027782;28;20299;-76
2021/03/30 07:04:32;;;;;;;10.32;3.28;;;12.00;57.00;;;;;;5046476;28;20225;-77
2021/03/30 07:07:26;;;;;;;4.90;3.05;;;12.20;57.50;;;;;;5069191;28;20183;-76
2021/03/30 07:10:11;;;;;;;4.53;2.63;;;12.70;57.10;;;;;;5073970;28;20683;-76
2021/03/30 07:12:56;;;;;;;5.75;3.40;;;13.50;58.00;;;;;;5066497;28;20226;-76
2021/03/30 07:15:43;;;;;;;5.60;2.60;;;14.50;58.40;;;;;;5093699;28;20223;-73
2021/03/30 07:18:47;;;;;;;2.93;2.03;;;15.50;58.80;;;;;;5088529;28;20659;-74
2021/03/30 07:21:58;;;;;;;5.57;1.80;;;16.60;59.00;;;;;;5092074;28;20648;-74
2021/03/30 07:24:53;;;;;;;3.87;2.40;;;18.10;58.40;;;;;;5068450;28;20569;-76
2021/03/30 07:27:47;;;;;;;4.03;2.67;;;19.20;56.50;;;;;;5091131;28;20658;-74
2021/03/30 07:30:31;;;;;;;6.27;2.87;;;20.10;56.10;;;;;;5091216;28;20570;-74
2021/03/30 07:33:45;;;;;;;5.27;2.57;;;21.00;55.90;;;;;;5059236;28;20693;-75
2021/03/30 07:36:36;;;;;;;6.10;2.50;;;21.90;55.20;;;;;;5075729;28;20578;-75
2021/03/30 07:39:23;;;;;;;3.40;1.60;;;23.00;54.60;;;;;;5058271;28;20565;-74
2021/03/30 07:42:07;;;;;;;3.80;2.13;;;24.00;54.50;;;;;;5073139;28;20640;-75
2021/03/30 07:44:53;;;;;;;4.03;2.10;;;25.00;54.00;;;;;;5073468;28;20645;-75
2021/03/30 07:47:38;;;;;;;4.17;2.43;;;25.90;52.80;;;;;;5057770;28;20586;-74
2021/03/30 07:50:24;;;;;;;4.53;2.77;;;26.80;51.90;;;;;;5057954;28;20644;-75
2021/03/30 07:53:48;;;;;;;4.07;2.80;;;27.40;49.80;;;;;;5057544;28;20597;-75
2021/03/30 07:56:39;;;;;;;4.93;2.93;;;27.90;48.10;;;;;;5056889;28;20678;-75
2021/03/30 07:59:44;;;;;;;2.73;2.10;;;28.30;46.90;;;;;;5072423;28;20597;-76
2021/03/30 08:02:28;;;;;;;13.07;4.20;;;28.60;46.00;;;;;;5056879;28;20616;-75
2021/03/30 08:05:14;;;;;;;13.63;3.97;;;28.90;45.30;;;;;;5072362;28;20542;-75
2021/03/30 08:07:59;;;;;;;5.87;3.00;;;29.20;44.60;;;;;;5056739;28;20628;-75
2021/03/30 08:10:48;;;;;;;4.77;2.60;;;29.40;43.20;;;;;;5056986;28;20573;-76
2021/03/30 08:13:34;;;;;;;7.83;2.90;;;29.50;43.00;;;;;;5057364;28;21187;-76
2021/03/30 08:16:20;;;;;;;7.20;2.63;;;29.70;42.50;;;;;;5056303;28;21319;-75
2021/03/30 08:19:12;;;;;;;3.20;2.67;;;29.90;42.10;;;;;;5056473;28;21199;-76
2021/03/30 08:22:07;;;;;;;3.20;2.07;;;30.20;41.30;;;;;;5071381;28;21091;-75
2021/03/30 08:24:51;;;;;;;4.83;2.57;;;30.50;41.20;;;;;;5071868;28;20581;-76
2021/03/30 08:27:38;;;;;;;2.93;2.10;;;30.80;40.80;;;;;;5071645;28;20629;-75
2021/03/30 08:30:25;;;;;;;6.23;2.73;;;31.00;40.00;;;;;;5056513;28;20573;-75
2021/03/30 08:33:14;;;;;;;4.43;1.80;;;31.00;38.80;;;;;;5071753;28;20605;-75
2021/03/30 08:36:36;;;;;;;6.10;3.00;;;31.00;38.30;;;;;;5071739;28;20601;-74
2021/03/30 08:39:21;;;;;;;5.03;2.50;;;31.20;39.70;;;;;;4943371;28;20670;-75
2021/03/30 08:42:10;;;;;;;3.17;1.83;;;31.10;38.00;;;;;;5071281;28;20640;-74
2021/03/30 08:45:01;;;;;;;3.33;2.13;;;31.30;38.30;;;;;;5056551;28;20605;-75
2021/03/30 08:47:47;;;;;;;2.87;2.37;;;31.70;37.90;;;;;;5042088;28;20589;-76
2021/03/30 08:50:34;;;;;;;3.73;2.50;;;32.00;38.20;;;;;;5059999;28;20583;-75
2021/03/30 08:53:22;;;;;;;5.17;2.80;;;32.50;38.20;;;;;;5071680;28;21235;-73
2021/03/30 08:56:10;;;;;;;4.50;2.20;;;32.80;37.20;;;;;;5056267;28;20932;-74
2021/03/30 08:58:57;;;;;;;5.00;2.80;;;33.10;36.80;;;;;;5056203;28;20653;-74
2021/03/30 09:01:42;;;;;;;4.37;1.70;;;33.30;36.40;;;;;;5071033;28;20631;-75
2021/03/30 09:04:45;;;;;;;6.53;2.50;;;33.50;35.60;;;;;;5071183;28;21214;-75
2021/03/30 09:07:47;;;;;;;5.53;2.13;;;33.80;35.90;;;;;;5071037;28;20576;-75
2021/03/30 09:10:32;;;;;;;4.20;2.57;;;34.30;35.70;;;;;;5056136;28;20939;-76
2021/03/30 09:13:17;;;;;;;5.67;1.80;;;34.80;35.70;;;;;;5055537;28;20968;-75
2021/03/30 09:16:12;;;;;;;3.53;2.60;;;35.20;34.90;;;;;;5055846;28;20681;-75
2021/03/30 09:19:17;;;;;;;5.93;2.60;;;35.20;33.40;;;;;;5056039;28;20628;-75
2021/03/30 09:28:03;;;;;;;3.20;2.60;;;35.30;32.60;;;;;;5070318;28;20985;-74
2021/03/30 09:30:48;;;;;;;3.70;2.20;;;35.20;32.10;;;;;;5044059;28;20582;-75
2021/03/30 09:33:33;;;;;;;3.57;2.23;;;35.00;32.30;;;;;;5039701;28;21017;-74
2021/03/30 09:36:17;;;;;;;5.13;1.87;;;35.20;32.30;;;;;;5054352;28;21169;-75
2021/03/30 09:39:02;;;;;;;3.80;2.20;;;35.50;32.30;;;;;;5066310;28;20596;-74
2021/03/30 09:41:48;;;;;;;2.23;1.50;;;35.80;31.90;;;;;;5072718;28;20672;-75
2021/03/30 09:44:38;;;;;;;6.00;2.03;;;36.10;32.60;;;;;;5064228;28;20593;-74
2021/03/30 09:47:23;;;;;;;3.60;2.03;;;36.30;31.00;;;;;;5058896;28;20728;-75
2021/03/30 09:50:08;;;;;;;3.40;1.90;;;36.60;31.20;;;;;;5059405;28;20619;-76
2021/03/30 09:52:52;;;;;;;3.00;1.97;;;36.80;30.50;;;;;;5044923;28;20617;-75
2021/03/30 09:55:47;;;;;;;3.37;1.60;;;36.80;30.00;;;;;;5066860;28;20695;-75
2021/03/30 09:58:35;;;;;;;6.10;2.13;;;36.90;29.80;;;;;;5039175;28;21200;-76
2021/03/30 10:01:20;;;;;;;2.50;1.80;;;36.80;29.40;;;;;;5053678;28;20645;-76
2021/03/30 10:04:04;;;;;;;5.63;1.90;;;36.50;29.00;;;;;;5057142;28;20590;-76
2021/03/30 10:06:49;;;;;;;2.27;1.87;;;36.30;28.60;;;;;;5053539;28;21053;-75
2021/03/30 10:09:33;;;;;;;3.27;2.00;;;36.00;28.80;;;;;;5038199;28;20670;-76
2021/03/30 10:12:23;;;;;;;2.63;1.50;;;36.10;29.20;;;;;;5053841;28;21235;-74
2021/03/30 10:15:07;;;;;;;4.20;2.97;;;36.40;29.00;;;;;;5054108;28;21209;-76
2021/03/30 10:17:52;;;;;;;3.00;2.30;;;36.40;28.00;;;;;;5038466;28;20625;-74
2021/03/30 10:20:50;;;;;;;5.17;2.80;;;36.30;28.00;;;;;;5053752;28;20723;-76
2021/03/30 10:23:49;;;;;;;4.97;2.10;;;36.20;27.70;;;;;;5053802;28;20625;-74
2021/03/30 10:26:36;;;;;;;2.83;2.10;;;36.20;28.10;;;;;;5038575;28;20613;-75
2021/03/30 10:29:33;;;;;;;3.20;2.90;;;36.30;28.30;;;;;;5042702;28;20941;-75
2021/03/30 10:32:18;;;;;;;4.00;2.83;;;36.30;27.40;;;;;;5073788;28;21012;-76
2021/03/30 10:35:05;;;;;;;5.77;3.90;;;35.90;27.60;;;;;;5073759;28;20654;-75
2021/03/30 10:37:50;;;;;;;4.60;3.40;;;35.80;27.20;;;;;;5057853;28;21049;-75
2021/03/30 10:40:40;;;;;;;5.00;3.17;;;35.40;27.20;;;;;;5058625;28;20649;-76
2021/03/30 10:43:25;;;;;;;3.97;3.57;;;35.10;27.60;;;;;;5042185;28;20786;-75
2021/03/30 10:46:20;;;;;;;8.40;4.90;;;34.80;27.60;;;;;;5052528;28;20665;-74
2021/03/30 10:49:06;;;;;;;6.53;4.07;;;34.40;27.40;;;;;;5022307;28;20604;-74
2021/03/30 10:51:51;;;;;;;6.50;5.00;;;34.10;27.50;;;;;;5037010;28;21283;-74
2021/03/30 10:54:39;;;;;;;9.20;5.67;;;33.80;27.40;;;;;;5052667;28;20584;-74
2021/03/30 10:57:32;;;;;;;7.80;6.70;;;33.40;27.50;;;;;;5035604;28;20584;-74
2021/03/30 11:00:17;;;;;;;7.07;6.37;;;33.10;27.10;;;;;;5034624;28;20586;-75
2021/03/30 11:03:02;;;;;;;10.13;6.67;;;32.80;27.10;;;;;;5051227;28;21068;-76
2021/03/30 11:05:46;;;;;;;6.63;5.70;;;32.50;27.40;;;;;;5053772;28;20576;-75
2021/03/30 11:08:30;;;;;;;6.00;5.03;;;32.50;27.80;;;;;;5052532;28;21174;-75
2021/03/30 11:11:15;;;;;;;5.33;4.70;;;32.60;27.90;;;;;;5052866;28;20600;-75
2021/03/30 11:13:59;;;;;;;5.50;4.17;;;32.70;27.90;;;;;;5053084;28;20623;-75
2021/03/30 11:16:43;;;;;;;6.40;5.13;;;32.50;26.70;;;;;;5053087;28;20642;-74
2021/03/30 11:19:29;;;;;;;7.00;5.80;;;32.10;26.70;;;;;;5056659;28;20635;-74
2021/03/30 11:22:13;;;;;;;7.50;4.77;;;31.60;26.10;;;;;;5051776;28;20642;-74
2021/03/30 11:25:01;;;;;;;5.90;4.03;;;31.00;26.50;;;;;;5051758;28;21204;-75
2021/03/30 11:27:49;;;;;;;15.03;4.90;;;30.70;27.10;;;;;;5037455;28;20618;-75
2021/03/30 11:30:41;;;;;;;8.10;4.23;;;30.80;27.40;;;;;;5029089;28;21045;-75
2021/03/30 11:33:32;;;;;;;3.30;2.53;;;30.90;27.70;;;;;;5052587;28;21200;-76
2021/03/30 11:36:19;;;;;;;3.70;2.23;;;30.80;27.00;;;;;;5052045;28;20618;-78
2021/03/30 11:39:04;;;;;;;2.80;1.90;;;30.80;27.00;;;;;;5022768;28;20575;-76
2021/03/30 11:41:48;;;;;;;4.83;2.77;;;30.60;26.60;;;;;;5036726;28;20797;-76
2021/03/30 11:44:33;;;;;;;7.47;3.20;;;30.40;25.80;;;;;;5023456;28;20632;-76
2021/03/30 11:47:18;;;;;;;3.83;2.10;;;30.20;26.40;;;;;;5036856;28;20574;-76
2021/03/30 11:50:06;;;;;;;4.07;2.50;;;30.20;26.70;;;;;;5037157;28;20577;-77
2021/03/30 11:52:50;;;;;;;3.50;2.37;;;30.20;26.80;;;;;;5036903;28;20688;-77
2021/03/30 11:55:34;;;;;;;4.63;3.03;;;30.20;26.60;;;;;;5040600;28;20625;-76
2021/03/30 11:58:19;;;;;;;3.20;1.80;;;30.10;26.30;;;;;;5036270;28;20624;-77
2021/03/30 12:01:06;;;;;;;3.60;2.23;;;29.90;26.60;;;;;;5051923;28;20991;-75
2021/03/30 12:03:51;;;;;;;4.50;2.77;;;29.90;26.70;;;;;;5051911;28;20697;-75
2021/03/30 12:06:38;;;;;;;2.83;1.77;;;30.00;26.70;;;;;;5051230;28;20963;-76
2021/03/30 12:09:23;;;;;;;6.13;2.03;;;30.20;26.70;;;;;;5036724;28;20593;-77
2021/03/30 12:12:08;;;;;;;5.57;1.83;;;30.30;26.20;;;;;;5051884;28;20624;-77
2021/03/30 12:14:53;;;;;;;9.43;1.60;;;30.30;26.20;;;;;;5036680;28;20657;-77
2021/03/30 12:17:40;;;;;;;1.63;1.20;;;30.40;26.20;;;;;;5036467;28;20641;-76
2021/03/30 12:20:24;;;;;;;2.60;1.20;;;30.40;26.10;;;;;;5051349;28;20593;-77
2021/03/30 12:23:09;;;;;;;3.07;1.60;;;30.50;26.20;;;;;;5051441;28;20672;-77
2021/03/30 12:25:54;;;;;;;3.53;2.20;;;30.60;25.80;;;;;;5036190;28;20701;-76
2021/03/30 12:28:38;;;;;;;3.20;1.47;;;30.60;25.90;;;;;;5036160;28;21141;-77
2021/03/30 12:31:23;;;;;;;1.80;1.13;;;30.50;25.70;;;;;;5031547;28;20575;-76
2021/03/30 12:34:07;;;;;;;6.03;1.13;;;30.40;24.90;;;;;;5036436;28;20603;-76
2021/03/30 12:36:53;;;;;;;2.10;1.00;;;30.10;24.30;;;;;;5016159;28;20630;-76
2021/03/30 12:39:37;;;;;;;2.13;1.00;;;30.00;24.20;;;;;;5031708;28;21053;-76
2021/03/30 12:42:21;;;;;;;1.60;1.00;;;30.00;24.80;;;;;;5016021;28;20641;-76
2021/03/30 12:45:06;;;;;;;4.33;1.10;;;29.90;24.60;;;;;;5031724;28;20715;-75
2021/03/30 12:47:53;;;;;;;4.50;1.40;;;29.80;24.50;;;;;;5031197;28;21166;-76
2021/03/30 12:50:37;;;;;;;2.73;1.20;;;29.60;24.60;;;;;;5031465;28;20618;-76
2021/03/30 12:53:22;;;;;;;2.50;1.07;;;29.60;24.50;;;;;;5016370;28;20650;-76
2021/03/30 12:56:07;;;;;;;2.00;1.27;;;29.40;24.30;;;;;;5031479;28;20942;-74
2021/03/30 12:58:52;;;;;;;3.27;1.00;;;29.20;24.60;;;;;;5031266;28;21052;-76
2021/03/30 13:01:36;;;;;;;3.20;1.17;;;29.10;24.70;;;;;;5031017;28;20984;-76
2021/03/30 13:04:25;;;;;;;1.80;1.20;;;28.90;24.80;;;;;;5016698;28;20572;-76
2021/03/30 13:07:11;;;;;;;2.23;1.00;;;28.90;24.70;;;;;;5063513;28;20594;-76
2021/03/30 13:09:56;;;;;;;3.90;1.23;;;28.90;24.70;;;;;;5059195;28;20645;-76
2021/03/30 13:12:40;;;;;;;2.10;1.10;;;28.80;24.30;;;;;;5039544;28;20964;-76
2021/03/30 13:15:25;;;;;;;2.40;1.20;;;28.50;24.20;;;;;;5020012;28;21164;-76
2021/03/30 13:18:09;;;;;;;1.70;0.90;;;28.30;24.00;;;;;;5034716;28;21165;-75
2021/03/30 13:20:53;;;;;;;4.50;1.30;;;27.90;24.00;;;;;;5034753;28;21202;-76
2021/03/30 13:23:38;;;;;;;6.33;0.83;;;27.70;24.10;;;;;;5024640;28;21004;-75
2021/03/30 13:26:22;;;;;;;2.40;0.90;;;27.40;24.20;;;;;;5054274;28;20636;-77
2021/03/30 13:29:07;;;;;;;1.50;0.90;;;27.20;23.80;;;;;;5041945;28;20634;-76
2021/03/30 13:31:51;;;;;;;2.10;0.87;;;26.90;23.50;;;;;;5059468;28;21002;-75
2021/03/30 13:34:37;;;;;;;3.70;1.03;;;26.70;23.40;;;;;;5059168;28;20624;-75
2021/03/30 13:37:21;;;;;;;3.80;1.13;;;26.40;23.30;;;;;;5059010;28;20597;-75
2021/03/30 13:40:06;;;;;;;3.37;0.90;;;26.30;23.10;;;;;;5044943;28;20606;-76
2021/03/30 13:42:51;;;;;;;7.23;1.13;;;26.00;22.60;;;;;;5039701;28;20670;-76
2021/03/30 13:45:36;;;;;;;2.43;0.70;;;25.90;23.20;;;;;;5064350;28;20555;-76
2021/03/30 13:48:20;;;;;;;1.30;0.80;;;25.90;23.20;;;;;;5042104;28;20639;-74
2021/03/30 13:51:05;;;;;;;4.47;0.70;;;25.70;23.20;;;;;;5039254;28;20735;-75
2021/03/30 13:53:49;;;;;;;3.50;1.00;;;25.70;23.20;;;;;;5057794;28;20636;-76
2021/03/30 13:56:35;;;;;;;1.77;0.90;;;25.60;23.40;;;;;;5073804;28;20570;-76
2021/03/30 13:59:20;;;;;;;3.30;0.80;;;25.50;23.30;;;;;;5059010;28;20580;-76
2021/03/30 14:02:04;;;;;;;3.57;0.80;;;25.50;23.30;;;;;;5065521;28;20653;-76
2021/03/30 14:04:48;;;;;;;2.00;0.80;;;25.50;23.20;;;;;;5019384;28;20559;-76
2021/03/30 14:07:32;;;;;;;1.50;0.90;;;25.50;23.00;;;;;;5033797;28;20607;-76
2021/03/30 14:10:21;;;;;;;1.50;0.90;;;25.50;22.90;;;;;;5034080;28;20568;-75
2021/03/30 14:13:18;;;;;;;1.60;0.70;;;25.50;22.90;;;;;;5042188;28;21063;-75
2021/03/30 14:16:10;;;;;;;1.50;0.90;;;25.50;22.70;;;;;;5057770;28;20582;-74
2021/03/30 14:19:00;;;;;;;2.10;0.80;;;25.40;22.60;;;;;;5058390;28;20605;-75
2021/03/30 14:21:51;;;;;;;2.70;0.90;;;25.40;22.60;;;;;;5073590;28;20633;-75
2021/03/30 14:24:56;;;;;;;4.53;0.90;;;25.40;22.80;;;;;;5062699;28;20708;-76
2021/03/30 14:27:41;;;;;;;1.40;0.70;;;25.40;22.90;;;;;;5073207;28;20641;-76
2021/03/30 14:30:26;;;;;;;6.83;1.10;;;25.50;22.70;;;;;;5060261;28;20641;-75
2021/03/30 14:33:14;;;;;;;1.97;0.70;;;25.50;22.80;;;;;;5024124;28;21000;-75
2021/03/30 14:35:58;;;;;;;3.17;0.97;;;25.50;22.80;;;;;;5038133;28;20621;-76
2021/03/30 14:38:47;;;;;;;1.40;0.70;;;25.50;22.90;;;;;;5053292;28;20574;-75